sensor_id;sensor_type;location;lat;lon;timestamp;temperature;humidity
38854;DHT22;24606;51.992;4.198;2024-03-23T00:53:06;12.60;99.90
38854;DHT22;24606;51.992;4.198;2024-03-23T00:58:08;13.00;99.90
38854;DHT22;24606;51.992;4.198;2024-03-23T01:03:11;12.40;99.90
38854;DHT22;24606;51.992;4.198;2024-03-23T01:08:14;12.00;99.90
38854;DHT22;24606;51.992;4.198;2024-03-23T01:13:16;12.70;99.90
38854;DHT22;24606;51.992;4.198;2024-03-23T01:18:22;13.10;99.90
38854;DHT22;24606;51.992;4.198;2024-03-23T01:23:26;12.80;99.90
38854;DHT22;24606;51.992;4.198;2024-03-23T01:28:28;12.40;99.90
38854;DHT22;24606;51.992;4.198;2024-03-23T01:33:30;11.20;99.90
38854;DHT22;24606;51.992;4.198;2024-03-23T01:38:33;11.50;99.90
38854;DHT22;24606;51.992;4.198;2024-03-23T01:43:36;11.40;99.90
38854;DHT22;24606;51.992;4.198;2024-03-23T01:48:38;11.30;99.90
38854;DHT22;24606;51.992;4.198;2024-03-23T01:53:42;11.00;99.90
38854;DHT22;24606;51.992;4.198;2024-03-23T01:58:44;10.60;99.90
38854;DHT22;24606;51.992;4.198;2024-03-23T02:03:47;11.70;99.90
38854;DHT22;24606;51.992;4.198;2024-03-23T02:08:50;11.10;99.90
38854;DHT22;24606;51.992;4.198;2024-03-23T02:13:52;11.40;99.90
38854;DHT22;24606;51.992;4.198;2024-03-23T02:18:54;11.10;99.90
38854;DHT22;24606;51.992;4.198;2024-03-23T02:23:58;10.30;99.90
38854;DHT22;24606;51.992;4.198;2024-03-23T02:29:00;10.40;99.90
38854;DHT22;24606;51.992;4.198;2024-03-23T02:34:02;10.00;99.90
38854;DHT22;24606;51.992;4.198;2024-03-23T02:39:06;10.70;99.90
38854;DHT22;24606;51.992;4.198;2024-03-23T02:44:08;10.40;99.90
38854;DHT22;24606;51.992;4.198;2024-03-23T02:49:13;10.40;99.90
38854;DHT22;24606;51.992;4.198;2024-03-23T02:54:17;11.40;99.90
38854;DHT22;24606;51.992;4.198;2024-03-23T02:59:19;10.20;99.90
38854;DHT22;24606;51.992;4.198;2024-03-23T03:04:21;9.70;99.90
38854;DHT22;24606;51.992;4.198;2024-03-23T03:09:24;10.30;99.90
38854;DHT22;24606;51.992;4.198;2024-03-23T03:14:26;9.50;99.90
38854;DHT22;24606;51.992;4.198;2024-03-23T03:19:28;10.10;99.90
38854;DHT22;24606;51.992;4.198;2024-03-23T03:24:32;9.20;99.90
38854;DHT22;24606;51.992;4.198;2024-03-23T03:29:34;8.70;99.90
38854;DHT22;24606;51.992;4.198;2024-03-23T03:34:36;9.40;99.90
38854;DHT22;24606;51.992;4.198;2024-03-23T03:39:39;10.30;99.90
38854;DHT22;24606;51.992;4.198;2024-03-23T03:44:41;10.30;99.90
38854;DHT22;24606;51.992;4.198;2024-03-23T03:49:43;9.70;99.90
38854;DHT22;24606;51.992;4.198;2024-03-23T03:54:47;10.70;99.90
38854;DHT22;24606;51.992;4.198;2024-03-23T03:59:49;9.80;99.90
38854;DHT22;24606;51.992;4.198;2024-03-23T04:04:51;9.80;99.90
38854;DHT22;24606;51.992;4.198;2024-03-23T04:09:54;9.10;99.90
38854;DHT22;24606;51.992;4.198;2024-03-23T04:14:56;10.10;99.90
38854;DHT22;24606;51.992;4.198;2024-03-23T04:19:58;10.40;99.90
38854;DHT22;24606;51.992;4.198;2024-03-23T04:25:02;9.60;99.90
38854;DHT22;24606;51.992;4.198;2024-03-23T04:30:07;9.50;99.90
38854;DHT22;24606;51.992;4.198;2024-03-23T04:35:11;9.50;99.90
38854;DHT22;24606;51.992;4.198;2024-03-23T04:40:15;9.50;99.90
38854;DHT22;24606;51.992;4.198;2024-03-23T04:45:17;8.90;99.90
38854;DHT22;24606;51.992;4.198;2024-03-23T04:50:19;8.50;99.90
38854;DHT22;24606;51.992;4.198;2024-03-23T04:55:22;8.80;99.90
38854;DHT22;24606;51.992;4.198;2024-03-23T05:00:26;8.80;99.90
38854;DHT22;24606;51.992;4.198;2024-03-23T05:05:28;9.00;99.90
38854;DHT22;24606;51.992;4.198;2024-03-23T05:10:32;8.70;99.90
38854;DHT22;24606;51.992;4.198;2024-03-23T05:15:34;8.40;99.90
38854;DHT22;24606;51.992;4.198;2024-03-23T05:20:36;7.90;99.90
38854;DHT22;24606;51.992;4.198;2024-03-23T05:25:40;8.30;99.90
38854;DHT22;24606;51.992;4.198;2024-03-23T05:30:42;8.60;99.90
38854;DHT22;24606;51.992;4.198;2024-03-23T05:35:44;8.40;99.90
38854;DHT22;24606;51.992;4.198;2024-03-23T05:40:54;8.50;99.90
38854;DHT22;24606;51.992;4.198;2024-03-23T05:45:57;8.80;99.90
38854;DHT22;24606;51.992;4.198;2024-03-23T05:50:59;8.00;99.90
38854;DHT22;24606;51.992;4.198;2024-03-23T05:56:03;8.50;99.90
38854;DHT22;24606;51.992;4.198;2024-03-23T06:01:07;7.90;99.90
38854;DHT22;24606;51.992;4.198;2024-03-23T06:06:11;7.90;99.90
38854;DHT22;24606;51.992;4.198;2024-03-23T06:11:14;8.80;99.90
38854;DHT22;24606;51.992;4.198;2024-03-23T06:16:17;9.50;99.90
38854;DHT22;24606;51.992;4.198;2024-03-23T06:21:23;8.80;99.90
38854;DHT22;24606;51.992;4.198;2024-03-23T06:26:27;8.70;99.90
38854;DHT22;24606;51.992;4.198;2024-03-23T06:31:29;8.40;99.90
38854;DHT22;24606;51.992;4.198;2024-03-23T06:36:31;8.40;99.90
38854;DHT22;24606;51.992;4.198;2024-03-23T06:41:34;9.70;99.90
38854;DHT22;24606;51.992;4.198;2024-03-23T06:46:36;9.40;99.90
38854;DHT22;24606;51.992;4.198;2024-03-23T06:51:38;9.80;99.90
38854;DHT22;24606;51.992;4.198;2024-03-23T06:56:42;8.90;99.90
38854;DHT22;24606;51.992;4.198;2024-03-23T07:01:45;8.70;99.90
38854;DHT22;24606;51.992;4.198;2024-03-23T07:06:47;9.60;99.90
38854;DHT22;24606;51.992;4.198;2024-03-23T07:11:51;9.20;99.90
38854;DHT22;24606;51.992;4.198;2024-03-23T07:16:53;9.30;99.90
38854;DHT22;24606;51.992;4.198;2024-03-23T07:21:55;8.40;99.90
38854;DHT22;24606;51.992;4.198;2024-03-23T07:26:58;8.40;99.90
38854;DHT22;24606;51.992;4.198;2024-03-23T07:32:00;8.60;99.90
38854;DHT22;24606;51.992;4.198;2024-03-23T07:37:02;8.60;99.90
38854;DHT22;24606;51.992;4.198;2024-03-23T07:42:06;8.30;99.90
38854;DHT22;24606;51.992;4.198;2024-03-23T07:47:08;8.10;99.90
38854;DHT22;24606;51.992;4.198;2024-03-23T07:52:10;8.90;99.90
38854;DHT22;24606;51.992;4.198;2024-03-23T07:57:13;9.10;99.90
38854;DHT22;24606;51.992;4.198;2024-03-23T08:02:16;8.70;99.90
38854;DHT22;24606;51.992;4.198;2024-03-23T08:07:18;9.10;99.90
38854;DHT22;24606;51.992;4.198;2024-03-23T08:12:21;8.90;99.90
38854;DHT22;24606;51.992;4.198;2024-03-23T08:17:23;8.70;99.90
38854;DHT22;24606;51.992;4.198;2024-03-23T08:22:25;9.20;99.90
38854;DHT22;24606;51.992;4.198;2024-03-23T08:27:28;8.60;99.90
38854;DHT22;24606;51.992;4.198;2024-03-23T08:32:30;8.60;99.90
38854;DHT22;24606;51.992;4.198;2024-03-23T08:37:32;9.00;99.90
38854;DHT22;24606;51.992;4.198;2024-03-23T08:42:36;8.70;99.90
38854;DHT22;24606;51.992;4.198;2024-03-23T08:47:38;8.80;99.90
38854;DHT22;24606;51.992;4.198;2024-03-23T08:52:40;8.30;99.90
38854;DHT22;24606;51.992;4.198;2024-03-23T08:57:43;8.90;99.90
38854;DHT22;24606;51.992;4.198;2024-03-23T09:02:47;9.10;99.90
38854;DHT22;24606;51.992;4.198;2024-03-23T09:07:49;8.70;99.90
38854;DHT22;24606;51.992;4.198;2024-03-23T09:12:53;8.80;99.90
38854;DHT22;24606;51.992;4.198;2024-03-23T09:17:55;8.60;99.90
38854;DHT22;24606;51.992;4.198;2024-03-23T09:22:57;8.50;99.90
38854;DHT22;24606;51.992;4.198;2024-03-23T09:28:00;8.90;99.90
38854;DHT22;24606;51.992;4.198;2024-03-23T09:33:03;9.00;99.90
38854;DHT22;24606;51.992;4.198;2024-03-23T09:38:05;9.30;99.90
38854;DHT22;24606;51.992;4.198;2024-03-23T09:43:10;8.80;99.90
38854;DHT22;24606;51.992;4.198;2024-03-23T09:48:12;9.00;99.90
38854;DHT22;24606;51.992;4.198;2024-03-23T09:53:15;8.70;99.90
38854;DHT22;24606;51.992;4.198;2024-03-23T09:58:18;9.00;99.90
38854;DHT22;24606;51.992;4.198;2024-03-23T10:03:21;8.80;99.90
38854;DHT22;24606;51.992;4.198;2024-03-23T10:08:23;9.20;99.90
38854;DHT22;24606;51.992;4.198;2024-03-23T10:13:28;9.00;99.90
38854;DHT22;24606;51.992;4.198;2024-03-23T10:18:31;8.90;99.90
38854;DHT22;24606;51.992;4.198;2024-03-23T10:23:33;8.70;99.90
38854;DHT22;24606;51.992;4.198;2024-03-23T10:28:37;9.10;99.90
38854;DHT22;24606;51.992;4.198;2024-03-23T10:33:44;8.80;99.90
38854;DHT22;24606;51.992;4.198;2024-03-23T10:38:47;9.10;99.90
38854;DHT22;24606;51.992;4.198;2024-03-23T10:43:50;8.90;99.90
38854;DHT22;24606;51.992;4.198;2024-03-23T10:48:53;9.50;99.90
38854;DHT22;24606;51.992;4.198;2024-03-23T10:53:56;9.80;99.90
38854;DHT22;24606;51.992;4.198;2024-03-23T10:59:02;9.80;99.90
38854;DHT22;24606;51.992;4.198;2024-03-23T11:04:04;9.80;99.90
38854;DHT22;24606;51.992;4.198;2024-03-23T11:09:40;9.30;99.90
38854;DHT22;24606;51.992;4.198;2024-03-23T11:14:47;9.60;99.90
38854;DHT22;24606;51.992;4.198;2024-03-23T11:19:54;9.90;99.90
38854;DHT22;24606;51.992;4.198;2024-03-23T11:24:57;9.70;99.90
38854;DHT22;24606;51.992;4.198;2024-03-23T11:30:15;10.10;99.90
38854;DHT22;24606;51.992;4.198;2024-03-23T11:35:27;9.80;99.90
38854;DHT22;24606;51.992;4.198;2024-03-23T11:40:29;10.00;99.90
38854;DHT22;24606;51.992;4.198;2024-03-23T11:45:37;9.50;99.90
38854;DHT22;24606;51.992;4.198;2024-03-23T11:50:40;9.20;99.90
38854;DHT22;24606;51.992;4.198;2024-03-23T11:55:46;9.90;99.90
38854;DHT22;24606;51.992;4.198;2024-03-23T12:00:55;9.70;99.90
38854;DHT22;24606;51.992;4.198;2024-03-23T12:05:59;9.80;99.90
38854;DHT22;24606;51.992;4.198;2024-03-23T12:11:06;9.70;99.90
38854;DHT22;24606;51.992;4.198;2024-03-23T12:16:14;9.70;99.90
38854;DHT22;24606;51.992;4.198;2024-03-23T12:21:17;9.90;99.90
38854;DHT22;24606;51.992;4.198;2024-03-23T12:26:19;10.10;99.90
38854;DHT22;24606;51.992;4.198;2024-03-23T12:31:22;9.90;99.90
38854;DHT22;24606;51.992;4.198;2024-03-23T12:36:25;10.10;99.90
38854;DHT22;24606;51.992;4.198;2024-03-23T12:41:27;10.40;99.90
38854;DHT22;24606;51.992;4.198;2024-03-23T12:46:30;9.60;99.90
38854;DHT22;24606;51.992;4.198;2024-03-23T12:51:33;9.50;99.90
38854;DHT22;24606;51.992;4.198;2024-03-23T12:56:35;10.00;99.90
38854;DHT22;24606;51.992;4.198;2024-03-23T13:01:38;10.00;99.90
38854;DHT22;24606;51.992;4.198;2024-03-23T13:06:41;10.10;99.90
38854;DHT22;24606;51.992;4.198;2024-03-23T13:11:43;11.00;99.90
38854;DHT22;24606;51.992;4.198;2024-03-23T13:16:46;11.00;99.90
38854;DHT22;24606;51.992;4.198;2024-03-23T13:21:49;9.60;99.90
38854;DHT22;24606;51.992;4.198;2024-03-23T13:26:52;9.20;99.90
38854;DHT22;24606;51.992;4.198;2024-03-23T13:31:56;8.90;99.90
38854;DHT22;24606;51.992;4.198;2024-03-23T13:36:58;9.10;99.90
38854;DHT22;24606;51.992;4.198;2024-03-23T13:42:00;8.90;99.90
38854;DHT22;24606;51.992;4.198;2024-03-23T13:47:04;10.10;99.90
38854;DHT22;24606;51.992;4.198;2024-03-23T13:52:06;11.30;99.90
38854;DHT22;24606;51.992;4.198;2024-03-23T13:57:08;11.30;99.90
38854;DHT22;24606;51.992;4.198;2024-03-23T14:02:12;11.20;99.90
38854;DHT22;24606;51.992;4.198;2024-03-23T14:07:15;10.80;99.90
38854;DHT22;24606;51.992;4.198;2024-03-23T14:12:19;10.40;99.90
38854;DHT22;24606;51.992;4.198;2024-03-23T14:17:22;10.50;99.90
38854;DHT22;24606;51.992;4.198;2024-03-23T14:22:24;10.70;99.90
38854;DHT22;24606;51.992;4.198;2024-03-23T14:27:27;11.80;99.90
38854;DHT22;24606;51.992;4.198;2024-03-23T14:32:30;12.20;99.90
38854;DHT22;24606;51.992;4.198;2024-03-23T14:37:34;12.50;99.90
38854;DHT22;24606;51.992;4.198;2024-03-23T14:42:37;12.50;99.90
38854;DHT22;24606;51.992;4.198;2024-03-23T14:47:41;13.30;99.90
38854;DHT22;24606;51.992;4.198;2024-03-23T14:52:44;14.50;99.90
38854;DHT22;24606;51.992;4.198;2024-03-23T14:57:48;14.50;99.90
38854;DHT22;24606;51.992;4.198;2024-03-23T15:02:52;14.40;99.90
38854;DHT22;24606;51.992;4.198;2024-03-23T15:07:54;14.20;99.90
38854;DHT22;24606;51.992;4.198;2024-03-23T15:12:57;12.50;99.90
38854;DHT22;24606;51.992;4.198;2024-03-23T15:18:00;12.80;99.90
38854;DHT22;24606;51.992;4.198;2024-03-23T15:23:02;11.90;99.90
38854;DHT22;24606;51.992;4.198;2024-03-23T15:28:05;12.20;99.90
38854;DHT22;24606;51.992;4.198;2024-03-23T15:33:08;13.50;99.90
38854;DHT22;24606;51.992;4.198;2024-03-23T15:38:11;13.70;99.90
38854;DHT22;24606;51.992;4.198;2024-03-23T15:43:13;14.40;99.90
38854;DHT22;24606;51.992;4.198;2024-03-23T15:48:16;14.40;99.80
38854;DHT22;24606;51.992;4.198;2024-03-23T15:53:18;13.50;99.90
38854;DHT22;24606;51.992;4.198;2024-03-23T15:58:21;13.90;99.90
38854;DHT22;24606;51.992;4.198;2024-03-23T16:03:25;13.40;99.90
38854;DHT22;24606;51.992;4.198;2024-03-23T16:08:27;12.70;99.90
38854;DHT22;24606;51.992;4.198;2024-03-23T16:13:29;13.30;99.90
38854;DHT22;24606;51.992;4.198;2024-03-23T16:18:34;11.80;99.90
38854;DHT22;24606;51.992;4.198;2024-03-23T16:23:37;11.80;99.90
38854;DHT22;24606;51.992;4.198;2024-03-23T16:28:41;13.50;99.90
38854;DHT22;24606;51.992;4.198;2024-03-23T16:33:45;13.70;99.90
38854;DHT22;24606;51.992;4.198;2024-03-23T16:38:48;15.00;99.90
38854;DHT22;24606;51.992;4.198;2024-03-23T16:43:50;14.40;99.90
38854;DHT22;24606;51.992;4.198;2024-03-23T16:48:54;14.10;99.90
38854;DHT22;24606;51.992;4.198;2024-03-23T16:53:56;13.30;99.90
38854;DHT22;24606;51.992;4.198;2024-03-23T16:59:00;13.30;99.90
38854;DHT22;24606;51.992;4.198;2024-03-23T17:04:03;13.60;99.90
38854;DHT22;24606;51.992;4.198;2024-03-23T17:09:06;13.40;99.90
38854;DHT22;24606;51.992;4.198;2024-03-23T17:14:08;13.20;99.90
38854;DHT22;24606;51.992;4.198;2024-03-23T17:19:11;13.00;99.90
38854;DHT22;24606;51.992;4.198;2024-03-23T17:24:13;13.00;99.90
38854;DHT22;24606;51.992;4.198;2024-03-23T17:29:15;12.70;99.90
38854;DHT22;24606;51.992;4.198;2024-03-23T17:34:18;12.70;99.90
38854;DHT22;24606;51.992;4.198;2024-03-23T17:39:21;11.60;99.90
38854;DHT22;24606;51.992;4.198;2024-03-23T17:44:23;11.30;99.90
38854;DHT22;24606;51.992;4.198;2024-03-23T17:49:26;11.60;99.90
38854;DHT22;24606;51.992;4.198;2024-03-23T17:54:28;10.70;99.90
38854;DHT22;24606;51.992;4.198;2024-03-23T17:59:31;11.20;99.90
38854;DHT22;24606;51.992;4.198;2024-03-23T18:04:34;10.40;99.90
38854;DHT22;24606;51.992;4.198;2024-03-23T18:09:36;10.10;99.90
38854;DHT22;24606;51.992;4.198;2024-03-23T18:14:38;9.70;99.90
38854;DHT22;24606;51.992;4.198;2024-03-23T18:19:42;9.80;99.90
38854;DHT22;24606;51.992;4.198;2024-03-23T18:24:44;9.80;99.90
38854;DHT22;24606;51.992;4.198;2024-03-23T18:29:46;10.00;99.90
38854;DHT22;24606;51.992;4.198;2024-03-23T18:34:49;9.40;99.90
38854;DHT22;24606;51.992;4.198;2024-03-23T18:39:51;9.20;99.90
38854;DHT22;24606;51.992;4.198;2024-03-23T18:44:54;9.00;99.90
38854;DHT22;24606;51.992;4.198;2024-03-23T18:49:57;9.60;99.90
38854;DHT22;24606;51.992;4.198;2024-03-23T18:54:59;9.10;99.90
38854;DHT22;24606;51.992;4.198;2024-03-23T19:00:01;9.20;99.90
38854;DHT22;24606;51.992;4.198;2024-03-23T19:05:05;9.00;99.90
38854;DHT22;24606;51.992;4.198;2024-03-23T19:10:08;8.80;99.90
38854;DHT22;24606;51.992;4.198;2024-03-23T19:15:10;9.20;99.90
38854;DHT22;24606;51.992;4.198;2024-03-23T19:20:14;9.30;99.90
38854;DHT22;24606;51.992;4.198;2024-03-23T19:25:16;9.20;99.90
38854;DHT22;24606;51.992;4.198;2024-03-23T19:30:18;9.10;99.90
38854;DHT22;24606;51.992;4.198;2024-03-23T19:35:22;9.30;99.90
38854;DHT22;24606;51.992;4.198;2024-03-23T19:40:24;8.70;99.90
38854;DHT22;24606;51.992;4.198;2024-03-23T19:45:27;8.90;99.90
38854;DHT22;24606;51.992;4.198;2024-03-23T19:50:31;9.10;99.90
38854;DHT22;24606;51.992;4.198;2024-03-23T19:55:35;9.00;99.90
38854;DHT22;24606;51.992;4.198;2024-03-23T20:00:38;9.20;99.90
38854;DHT22;24606;51.992;4.198;2024-03-23T20:05:41;8.90;99.90
38854;DHT22;24606;51.992;4.198;2024-03-23T20:10:46;9.30;99.90
38854;DHT22;24606;51.992;4.198;2024-03-23T20:15:54;9.60;99.90
38854;DHT22;24606;51.992;4.198;2024-03-23T20:21:00;10.50;99.90
38854;DHT22;24606;51.992;4.198;2024-03-23T20:26:02;9.50;99.90
38854;DHT22;24606;51.992;4.198;2024-03-23T20:31:05;9.70;99.90
38854;DHT22;24606;51.992;4.198;2024-03-23T20:36:10;9.00;99.90
38854;DHT22;24606;51.992;4.198;2024-03-23T20:41:13;9.10;99.90
38854;DHT22;24606;51.992;4.198;2024-03-23T20:46:15;8.60;99.90
38854;DHT22;24606;51.992;4.198;2024-03-23T20:51:20;8.60;99.90
38854;DHT22;24606;51.992;4.198;2024-03-23T20:56:22;10.00;99.90
38854;DHT22;24606;51.992;4.198;2024-03-23T21:01:24;9.10;99.90
38854;DHT22;24606;51.992;4.198;2024-03-23T21:06:28;9.60;99.90
38854;DHT22;24606;51.992;4.198;2024-03-23T21:11:30;9.10;99.90
38854;DHT22;24606;51.992;4.198;2024-03-23T21:16:32;9.00;99.90
38854;DHT22;24606;51.992;4.198;2024-03-23T21:21:35;8.70;99.90
38854;DHT22;24606;51.992;4.198;2024-03-23T21:26:38;9.00;99.90
38854;DHT22;24606;51.992;4.198;2024-03-23T21:31:41;9.30;99.90
38854;DHT22;24606;51.992;4.198;2024-03-23T21:36:45;8.90;99.90
38854;DHT22;24606;51.992;4.198;2024-03-23T21:41:47;8.50;99.90
38854;DHT22;24606;51.992;4.198;2024-03-23T21:46:49;8.20;99.90
38854;DHT22;24606;51.992;4.198;2024-03-23T21:51:53;8.30;99.90
38854;DHT22;24606;51.992;4.198;2024-03-23T21:56:55;8.40;99.90
38854;DHT22;24606;51.992;4.198;2024-03-23T22:01:57;8.30;99.90
38854;DHT22;24606;51.992;4.198;2024-03-23T22:07:00;8.20;99.90
38854;DHT22;24606;51.992;4.198;2024-03-23T22:12:03;8.30;99.90
38854;DHT22;24606;51.992;4.198;2024-03-23T22:17:05;8.50;99.90
38854;DHT22;24606;51.992;4.198;2024-03-23T22:22:09;8.40;99.90
38854;DHT22;24606;51.992;4.198;2024-03-23T22:27:11;8.00;99.90
38854;DHT22;24606;51.992;4.198;2024-03-23T22:32:12;7.70;99.90
38854;DHT22;24606;51.992;4.198;2024-03-23T22:37:16;7.40;99.90
38854;DHT22;24606;51.992;4.198;2024-03-23T22:42:18;7.10;99.90
38854;DHT22;24606;51.992;4.198;2024-03-23T22:47:20;7.20;99.90
38854;DHT22;24606;51.992;4.198;2024-03-23T22:52:24;7.30;99.90
38854;DHT22;24606;51.992;4.198;2024-03-23T22:57:26;7.50;99.90
38854;DHT22;24606;51.992;4.198;2024-03-23T23:02:28;7.70;99.90
38854;DHT22;24606;51.992;4.198;2024-03-23T23:07:32;7.40;99.90
38854;DHT22;24606;51.992;4.198;2024-03-23T23:12:35;7.70;99.90
38854;DHT22;24606;51.992;4.198;2024-03-23T23:17:38;7.10;99.90
38854;DHT22;24606;51.992;4.198;2024-03-23T23:22:42;7.30;99.90
38854;DHT22;24606;51.992;4.198;2024-03-23T23:27:44;7.40;99.90
38854;DHT22;24606;51.992;4.198;2024-03-23T23:32:46;7.40;99.90
38854;DHT22;24606;51.992;4.198;2024-03-23T23:37:51;7.30;99.90
38854;DHT22;24606;51.992;4.198;2024-03-23T23:42:53;7.40;99.90
38854;DHT22;24606;51.992;4.198;2024-03-23T23:47:56;7.80;99.90
38854;DHT22;24606;51.992;4.198;2024-03-23T23:53:01;7.60;99.90
38854;DHT22;24606;51.992;4.198;2024-03-23T23:58:03;8.00;99.90
